Time;durP1;ratioP1;P1;durP2;ratioP2;P2;SDS_P1;SDS_P2;PMS_P1;PMS_P2;Temp;Humidity;BMP_temperature;BMP_pressure;BME280_temperature;BME280_humidity;BME280_pressure;Samples;Min_cycle;Max_cycle;Signal;HPM_P1;HPM_P2
2022/06/16 00:00:11;;;;;;;5.38;2.15;;;19.30;77.50;;;;;;4997120;28;20030;-59
2022/06/16 00:02:46;;;;;;;6.97;1.85;;;19.40;77.70;;;;;;4993009;28;20049;-58
2022/06/16 00:05:14;;;;;;;6.70;2.38;;;19.30;77.60;;;;;;5001548;28;20113;-60
2022/06/16 00:07:41;;;;;;;3.85;2.42;;;19.40;77.60;;;;;;5008460;28;20030;-59
2022/06/16 00:10:08;;;;;;;5.85;2.10;;;19.40;77.60;;;;;;5004940;28;20030;-58
2022/06/16 00:12:34;;;;;;;5.15;2.83;;;19.30;77.70;;;;;;5001668;28;20113;-60
2022/06/16 00:15:01;;;;;;;7.28;3.30;;;19.30;78.10;;;;;;5006598;28;20034;-59
2022/06/16 00:17:27;;;;;;;6.50;2.58;;;19.20;78.20;;;;;;5010684;28;20037;-60
2022/06/16 00:19:52;;;;;;;6.63;2.30;;;19.20;78.60;;;;;;5008430;28;20506;-60
2022/06/16 00:22:18;;;;;;;11.88;3.08;;;19.10;78.80;;;;;;5010509;28;20038;-59
2022/06/16 00:24:44;;;;;;;8.48;2.10;;;19.10;79.00;;;;;;5010494;28;20109;-60
2022/06/16 00:27:10;;;;;;;5.55;2.25;;;19.00;79.20;;;;;;5011267;28;20021;-59
2022/06/16 00:29:36;;;;;;;8.02;2.92;;;19.10;79.20;;;;;;5007693;28;20064;-59
2022/06/16 00:32:01;;;;;;;6.47;2.47;;;19.00;79.50;;;;;;5012017;28;20165;-60
2022/06/16 00:34:27;;;;;;;5.38;2.50;;;18.90;79.80;;;;;;5009026;28;20104;-59
2022/06/16 00:36:54;;;;;;;5.43;2.15;;;18.90;80.10;;;;;;4998550;28;20021;-58
2022/06/16 00:39:19;;;;;;;7.28;2.92;;;18.80;80.40;;;;;;5000765;28;20049;-60
2022/06/16 00:41:45;;;;;;;5.70;2.55;;;18.80;80.70;;;;;;5001316;28;20121;-60
2022/06/16 00:44:16;;;;;;;8.27;2.67;;;18.70;81.30;;;;;;5002944;28;20072;-60
2022/06/16 00:46:41;;;;;;;5.65;2.92;;;18.60;81.40;;;;;;4996422;28;20022;-58
2022/06/16 00:49:12;;;;;;;6.30;2.58;;;18.60;82.00;;;;;;4997842;28;20480;-57
2022/06/16 00:51:52;;;;;;;6.13;2.70;;;18.60;82.10;;;;;;5000926;28;20730;-59
2022/06/16 00:54:25;;;;;;;7.53;3.38;;;18.60;82.40;;;;;;5001479;28;20042;-58
2022/06/16 00:56:54;;;;;;;7.97;2.22;;;18.50;82.60;;;;;;5006034;28;20130;-58
2022/06/16 00:59:22;;;;;;;7.78;2.92;;;18.50;83.00;;;;;;5000340;28;20026;-58
2022/06/16 01:01:47;;;;;;;5.80;2.65;;;18.40;83.40;;;;;;5008317;28;20561;-58
2022/06/16 01:07:03;;;;;;;10.85;2.60;;;18.30;84.50;;;;;;5000529;28;20110;-59
2022/06/16 01:09:31;;;;;;;6.97;2.40;;;18.30;85.10;;;;;;4998936;28;20030;-59
2022/06/16 01:15:11;;;;;;;12.25;2.92;;;18.20;86.20;;;;;;4998255;28;20038;-60
2022/06/16 01:18:01;;;;;;;14.75;2.75;;;18.10;86.50;;;;;;4999882;28;20029;-60
2022/06/16 01:20:37;;;;;;;6.45;2.50;;;18.00;86.90;;;;;;5000153;28;20567;-59
2022/06/16 01:23:12;;;;;;;10.30;2.70;;;18.00;87.40;;;;;;4998660;28;20084;-55
2022/06/16 01:25:41;;;;;;;9.55;2.92;;;17.90;88.00;;;;;;4999713;28;20030;-60
2022/06/16 01:28:15;;;;;;;7.20;2.75;;;17.90;88.50;;;;;;4999643;28;20042;-60
2022/06/16 01:30:49;;;;;;;12.30;3.42;;;17.80;89.20;;;;;;4999671;28;21005;-60
2022/06/16 01:33:27;;;;;;;14.80;3.60;;;17.70;89.80;;;;;;5002928;28;20030;-60
2022/06/16 01:36:08;;;;;;;11.90;3.28;;;17.70;90.10;;;;;;5003417;28;20041;-59
2022/06/16 01:38:48;;;;;;;9.90;2.35;;;17.70;90.30;;;;;;5002244;28;20041;-60
2022/06/16 01:41:23;;;;;;;7.00;2.72;;;17.70;90.50;;;;;;5001446;28;20031;-60
2022/06/16 01:44:10;;;;;;;7.50;2.65;;;17.60;90.80;;;;;;5000195;28;20026;-59
2022/06/16 01:46:39;;;;;;;6.25;2.38;;;17.50;91.00;;;;;;5006724;28;20030;-59
2022/06/16 01:49:15;;;;;;;7.20;2.75;;;17.50;91.30;;;;;;5011182;28;20036;-59
2022/06/16 01:51:46;;;;;;;8.75;2.80;;;17.50;91.50;;;;;;5009566;28;20059;-58
2022/06/16 01:54:18;;;;;;;9.10;2.83;;;17.40;91.60;;;;;;5011157;28;20030;-57
2022/06/16 01:56:58;;;;;;;9.45;3.10;;;17.40;91.90;;;;;;5007952;28;20041;-58
2022/06/16 01:59:32;;;;;;;8.10;3.45;;;17.30;92.20;;;;;;4994413;28;20030;-59
2022/06/16 02:02:02;;;;;;;7.25;2.55;;;17.30;92.60;;;;;;5002775;28;20399;-59
2022/06/16 02:04:39;;;;;;;8.20;2.90;;;17.20;93.00;;;;;;4999260;28;20076;-58
2022/06/16 02:07:11;;;;;;;7.47;3.13;;;17.10;93.10;;;;;;4999009;28;20030;-58
2022/06/16 02:09:43;;;;;;;5.95;2.95;;;17.10;93.60;;;;;;4998189;28;20458;-57
2022/06/16 02:12:55;;;;;;;7.53;2.65;;;17.00;93.90;;;;;;5004127;28;20392;-58
2022/06/16 02:15:06;;;;;;;13.60;3.10;;;17.00;94.00;;;;;;4995922;28;20065;-59
2022/06/16 02:17:32;;;;;;;11.43;3.30;;;16.90;94.40;;;;;;4999730;28;20045;-59
2022/06/16 02:19:57;;;;;;;5.93;3.28;;;16.90;94.60;;;;;;5005387;28;20464;-57
2022/06/16 02:22:23;;;;;;;12.80;3.55;;;16.80;95.00;;;;;;4996279;28;20949;-57
2022/06/16 02:24:48;;;;;;;11.85;3.50;;;16.80;95.30;;;;;;5002959;28;20053;-59
2022/06/16 02:27:14;;;;;;;9.55;3.38;;;16.80;95.50;;;;;;4998071;28;20021;-58
2022/06/16 02:29:40;;;;;;;6.28;3.22;;;16.70;95.70;;;;;;5003479;28;20755;-57
2022/06/16 02:32:23;;;;;;;7.95;3.35;;;16.70;95.90;;;;;;4996174;28;20026;-59
2022/06/16 02:35:11;;;;;;;4.63;3.17;;;16.70;96.10;;;;;;4999571;28;20105;-59
2022/06/16 02:37:50;;;;;;;9.10;3.67;;;16.70;96.30;;;;;;5002343;28;20057;-59
2022/06/16 02:40:34;;;;;;;5.35;2.42;;;16.60;96.70;;;;;;5005136;28;20042;-59
2022/06/16 02:43:05;;;;;;;;;;;16.60;96.90;;;;;;5008305;28;20080;-59
2022/06/16 02:45:42;;;;;;;7.93;3.30;;;16.50;97.30;;;;;;4998820;28;20318;-59
2022/06/16 02:48:28;;;;;;;4.47;2.83;;;16.50;97.30;;;;;;4997617;28;20080;-59
2022/06/16 02:51:10;;;;;;;8.95;3.25;;;16.50;97.50;;;;;;5000324;28;20042;-58
2022/06/16 02:56:54;;;;;;;5.35;3.15;;;16.40;97.80;;;;;;5006913;28;20060;-59
2022/06/16 02:59:24;;;;;;;7.45;3.53;;;16.40;98.10;;;;;;4994574;28;20063;-59
2022/06/16 03:01:51;;;;;;;5.93;2.80;;;16.40;98.30;;;;;;4998176;28;20112;-59
2022/06/16 03:04:18;;;;;;;7.50;3.70;;;16.40;98.40;;;;;;4994364;28;20412;-57
2022/06/16 03:06:45;;;;;;;7.10;3.33;;;16.30;98.60;;;;;;4995910;28;20541;-59
2022/06/16 03:09:12;;;;;;;9.73;3.20;;;16.30;98.80;;;;;;4995970;28;20042;-59
2022/06/16 03:11:39;;;;;;;15.35;3.47;;;16.20;99.10;;;;;;4995846;28;20435;-58
2022/06/16 03:14:05;;;;;;;9.40;3.28;;;16.20;99.30;;;;;;4997659;28;20033;-58
2022/06/16 03:16:31;;;;;;;7.68;2.53;;;16.10;99.50;;;;;;4996025;28;20041;-57
2022/06/16 03:18:57;;;;;;;8.15;3.70;;;16.10;99.80;;;;;;4995866;28;20022;-57
2022/06/16 03:21:22;;;;;;;8.95;3.40;;;16.00;99.70;;;;;;4996704;28;20034;-60
2022/06/16 03:23:48;;;;;;;6.82;3.08;;;16.00;99.90;;;;;;4995275;28;20493;-59
2022/06/16 03:26:14;;;;;;;16.80;3.22;;;16.00;99.90;;;;;;4996683;28;20026;-59
2022/06/16 03:28:40;;;;;;;9.40;3.30;;;15.90;99.90;;;;;;4995850;28;20431;-59
2022/06/16 03:31:05;;;;;;;9.10;3.60;;;15.90;99.90;;;;;;4996985;28;20030;-60
2022/06/16 03:33:31;;;;;;;5.90;3.40;;;15.90;99.90;;;;;;4998258;28;20492;-59
2022/06/16 03:35:57;;;;;;;9.82;3.53;;;15.90;99.90;;;;;;4995101;28;20042;-58
2022/06/16 03:40:54;;;;;;;7.07;3.72;;;15.80;99.90;;;;;;4996424;28;20034;-58
2022/06/16 03:43:20;;;;;;;6.45;3.15;;;15.80;99.90;;;;;;4997356;28;20541;-59
2022/06/16 03:45:46;;;;;;;6.20;3.22;;;15.70;99.90;;;;;;4995295;28;20037;-59
2022/06/16 03:48:12;;;;;;;14.50;3.58;;;15.70;99.90;;;;;;4995671;28;20048;-59
2022/06/16 03:50:38;;;;;;;10.55;3.17;;;15.70;99.90;;;;;;4994974;28;20041;-60
2022/06/16 03:53:05;;;;;;;9.30;3.15;;;15.70;99.90;;;;;;4995677;28;20466;-59
2022/06/16 03:55:31;;;;;;;6.85;3.42;;;15.70;99.90;;;;;;4995330;28;20040;-59
2022/06/16 03:57:58;;;;;;;5.65;3.38;;;15.70;99.90;;;;;;4995639;28;20518;-59
2022/06/16 04:00:24;;;;;;;7.10;3.10;;;15.80;99.90;;;;;;4995715;28;20494;-58
2022/06/16 04:03:59;;;;;;;8.70;3.17;;;15.80;99.90;;;;;;4997900;28;20030;-59
2022/06/16 04:05:40;;;;;;;9.32;3.10;;;15.90;99.90;;;;;;4995200;28;20519;-60
2022/06/16 04:08:06;;;;;;;7.95;3.00;;;16.00;99.90;;;;;;4996521;28;20044;-59
2022/06/16 04:10:32;;;;;;;5.32;2.92;;;16.10;99.90;;;;;;4995486;28;20064;-59
2022/06/16 04:12:58;;;;;;;7.03;3.10;;;16.10;99.90;;;;;;4995463;28;20121;-59
2022/06/16 04:15:23;;;;;;;13.88;3.10;;;16.20;99.80;;;;;;4995545;28;20034;-60
2022/06/16 04:17:49;;;;;;;5.35;3.42;;;16.10;99.80;;;;;;4997692;28;20053;-59
2022/06/16 04:20:15;;;;;;;9.80;3.80;;;16.10;99.90;;;;;;4996613;28;20034;-59
2022/06/16 04:22:41;;;;;;;9.10;3.08;;;16.20;99.60;;;;;;4996033;28;20062;-60
2022/06/16 04:25:12;;;;;;;6.97;3.33;;;16.10;99.70;;;;;;4995775;28;20030;-60
2022/06/16 04:27:41;;;;;;;9.73;3.67;;;16.10;99.80;;;;;;4995265;28;20026;-59
2022/06/16 04:30:08;;;;;;;6.97;2.80;;;16.10;99.80;;;;;;4993367;28;20030;-58
2022/06/16 04:32:34;;;;;;;7.35;3.08;;;16.10;99.80;;;;;;4995642;28;20037;-58
2022/06/16 04:35:00;;;;;;;5.93;3.30;;;16.30;99.90;;;;;;4994677;28;20589;-60
2022/06/16 04:37:25;;;;;;;8.00;3.00;;;17.10;98.00;;;;;;4997406;28;20117;-60
2022/06/16 04:39:51;;;;;;;8.32;3.25;;;17.60;96.80;;;;;;4997412;28;20034;-59
2022/06/16 04:42:17;;;;;;;9.15;3.53;;;18.20;95.10;;;;;;4996284;28;20026;-57
2022/06/16 04:44:43;;;;;;;7.97;3.05;;;18.50;94.00;;;;;;4993342;28;20029;-60
2022/06/16 04:47:08;;;;;;;10.07;3.58;;;18.90;93.00;;;;;;4995528;28;20018;-60
2022/06/16 04:49:37;;;;;;;7.07;2.92;;;19.20;92.50;;;;;;4995763;28;20388;-59
2022/06/16 04:52:03;;;;;;;5.63;2.92;;;19.80;91.20;;;;;;4998542;28;20038;-60
2022/06/16 04:54:29;;;;;;;6.78;3.15;;;19.70;90.60;;;;;;4997059;28;20126;-60
2022/06/16 04:56:55;;;;;;;8.07;2.92;;;19.40;91.00;;;;;;4998320;28;20466;-60
2022/06/16 04:59:20;;;;;;;5.88;3.50;;;19.20;91.10;;;;;;4997607;28;20034;-60
2022/06/16 05:01:46;;;;;;;6.60;3.33;;;18.70;92.20;;;;;;4998421;28;20042;-60
2022/06/16 05:04:11;;;;;;;8.02;2.63;;;19.20;92.80;;;;;;4999141;28;20500;-60
2022/06/16 05:06:37;;;;;;;9.85;3.88;;;20.30;91.00;;;;;;4998112;28;20034;-60
2022/06/16 05:09:03;;;;;;;20.60;3.58;;;21.30;88.60;;;;;;4997600;28;20377;-59
2022/06/16 05:11:28;;;;;;;6.88;3.10;;;21.90;83.30;;;;;;4998704;28;20026;-60
2022/06/16 05:13:54;;;;;;;5.95;2.67;;;22.80;80.80;;;;;;4998183;28;20064;-60
2022/06/16 05:16:20;;;;;;;6.00;3.38;;;23.80;77.00;;;;;;4999262;28;20107;-59
2022/06/16 05:18:45;;;;;;;5.22;2.42;;;25.20;73.40;;;;;;4998700;28;20036;-60
2022/06/16 05:21:14;;;;;;;8.10;2.20;;;25.70;69.80;;;;;;4997938;28;20037;-59
2022/06/16 05:23:40;;;;;;;8.05;3.17;;;26.10;69.30;;;;;;4997371;28;20036;-59
2022/06/16 05:26:07;;;;;;;6.63;2.78;;;26.20;67.40;;;;;;5000205;28;20438;-60
2022/06/16 05:28:33;;;;;;;7.05;2.38;;;27.30;65.80;;;;;;4998160;28;20037;-59
2022/06/16 05:30:58;;;;;;;5.40;2.40;;;28.10;64.10;;;;;;5011364;28;20026;-60
2022/06/16 05:33:24;;;;;;;5.57;2.45;;;27.80;62.50;;;;;;5012571;28;20695;-60
2022/06/16 05:36:02;;;;;;;9.95;2.20;;;27.50;64.00;;;;;;4998617;28;20038;-61
2022/06/16 05:38:29;;;;;;;5.85;2.55;;;28.00;62.60;;;;;;4997904;28;20040;-60
2022/06/16 05:41:01;;;;;;;8.15;2.67;;;29.00;61.00;;;;;;4998042;28;20510;-59
2022/06/16 05:43:27;;;;;;;8.23;2.70;;;28.40;62.20;;;;;;4998312;28;21612;-59
2022/06/16 05:45:53;;;;;;;6.07;2.20;;;28.60;60.90;;;;;;4997206;28;20045;-59
2022/06/16 05:48:20;;;;;;;4.63;2.25;;;29.60;60.30;;;;;;4997569;28;20033;-58
2022/06/16 05:50:45;;;;;;;8.50;2.42;;;28.70;59.80;;;;;;4997283;28;20112;-60
2022/06/16 05:53:11;;;;;;;7.85;2.35;;;28.80;60.80;;;;;;4999455;28;20132;-59
2022/06/16 05:55:37;;;;;;;3.63;2.30;;;29.40;59.70;;;;;;4997403;28;20392;-59
2022/06/16 05:58:03;;;;;;;4.82;2.40;;;29.50;58.60;;;;;;4997446;28;20092;-59
2022/06/16 06:00:30;;;;;;;6.47;2.20;;;29.90;58.80;;;;;;4997909;28;20045;-59
2022/06/16 06:02:58;;;;;;;5.53;2.55;;;30.10;58.10;;;;;;4997628;28;20032;-58
2022/06/16 06:05:25;;;;;;;6.38;2.42;;;30.70;56.60;;;;;;4999106;28;20399;-60
2022/06/16 06:18:48;;;;;;;5.90;2.28;;;30.80;54.90;;;;;;4998546;28;20112;-60
2022/06/16 06:21:13;;;;;;;12.05;2.97;;;30.40;57.00;;;;;;4996601;28;20116;-59
2022/06/16 06:23:39;;;;;;;6.55;2.53;;;30.20;56.60;;;;;;4997224;28;20030;-60
2022/06/16 06:26:05;;;;;;;6.15;2.30;;;30.60;56.00;;;;;;4998610;28;20117;-59
2022/06/16 06:28:30;;;;;;;4.57;2.47;;;31.50;55.00;;;;;;4998149;28;21376;-59
2022/06/16 06:30:56;;;;;;;5.53;2.47;;;30.80;54.90;;;;;;4998017;28;21942;-59
2022/06/16 06:33:22;;;;;;;9.50;2.55;;;30.90;54.60;;;;;;4996166;28;20507;-59
2022/06/16 06:35:47;;;;;;;7.03;2.40;;;31.70;55.60;;;;;;4996276;28;21078;-60
2022/06/16 06:38:14;;;;;;;4.57;2.15;;;31.90;54.30;;;;;;4997649;28;20026;-59
2022/06/16 06:40:40;;;;;;;5.85;2.90;;;31.50;54.40;;;;;;4997769;28;20053;-59
2022/06/16 06:43:06;;;;;;;4.50;1.95;;;31.70;53.50;;;;;;4998901;28;20022;-59
2022/06/16 06:45:32;;;;;;;6.90;2.60;;;31.50;54.30;;;;;;4997408;28;20633;-59
2022/06/16 06:47:57;;;;;;;8.75;2.25;;;31.80;53.70;;;;;;4997762;28;20034;-59
2022/06/16 06:50:41;;;;;;;2.63;1.85;;;31.40;54.30;;;;;;4998119;28;20080;-56
2022/06/16 06:53:08;;;;;;;5.38;2.30;;;31.60;53.60;;;;;;4996980;28;20377;-59
2022/06/16 06:55:40;;;;;;;7.15;3.28;;;32.10;53.20;;;;;;4996186;28;20026;-57
2022/06/16 06:58:07;;;;;;;;;;;32.30;53.50;;;;;;4998070;28;20032;-60
2022/06/16 07:00:33;;;;;;;10.70;2.75;;;32.20;52.80;;;;;;4986273;28;19925;-59
2022/06/16 07:02:59;;;;;;;6.63;2.60;;;31.70;52.80;;;;;;4992991;28;20029;-58
2022/06/16 07:05:24;;;;;;;10.15;2.45;;;32.50;51.90;;;;;;4994958;28;21591;-59
2022/06/16 07:07:50;;;;;;;9.75;2.58;;;33.30;51.50;;;;;;4998520;28;20032;-59
2022/06/16 07:10:17;;;;;;;5.32;2.15;;;33.10;50.20;;;;;;4995013;28;21050;-59
2022/06/16 07:12:43;;;;;;;7.25;1.98;;;32.50;51.30;;;;;;4995166;28;20407;-59
2022/06/16 07:15:10;;;;;;;6.75;2.33;;;32.40;50.80;;;;;;4994836;28;20575;-59
2022/06/16 07:17:36;;;;;;;3.20;1.75;;;32.40;51.40;;;;;;4994279;28;20065;-59
2022/06/16 07:20:02;;;;;;;4.95;1.92;;;32.50;52.80;;;;;;4997861;28;20057;-59
2022/06/16 07:22:28;;;;;;;4.50;2.10;;;33.40;50.80;;;;;;4995983;28;20059;-58
2022/06/16 07:24:54;;;;;;;8.07;2.35;;;32.80;52.10;;;;;;4995672;28;20175;-56
2022/06/16 07:27:20;;;;;;;4.18;2.00;;;32.30;51.30;;;;;;4994537;28;20065;-58
2022/06/16 07:29:49;;;;;;;6.85;2.13;;;32.90;52.30;;;;;;4995056;28;20038;-59
2022/06/16 07:32:16;;;;;;;5.32;2.05;;;32.80;51.60;;;;;;4995319;28;20029;-61
2022/06/16 07:34:42;;;;;;;7.32;2.60;;;33.60;50.50;;;;;;4994596;28;20033;-60
2022/06/16 07:37:08;;;;;;;5.00;2.08;;;32.80;50.50;;;;;;4995250;28;20926;-59
2022/06/16 07:39:34;;;;;;;5.88;2.30;;;33.00;49.90;;;;;;4995794;28;20052;-60
2022/06/16 07:42:00;;;;;;;5.05;1.75;;;33.80;50.70;;;;;;4996400;28;20061;-60
2022/06/16 07:44:25;;;;;;;6.30;2.00;;;34.30;50.60;;;;;;4995307;28;20725;-60
2022/06/16 07:46:51;;;;;;;2.70;1.65;;;34.40;48.40;;;;;;4995108;28;20653;-59
2022/06/16 07:49:22;;;;;;;8.38;2.60;;;33.90;49.30;;;;;;4994624;28;21412;-58
2022/06/16 07:51:52;;;;;;;5.05;2.30;;;34.50;49.30;;;;;;4994925;28;20490;-60
2022/06/16 07:54:19;;;;;;;8.27;2.58;;;34.50;49.00;;;;;;4994944;28;20033;-60
2022/06/16 07:56:45;;;;;;;3.92;1.77;;;34.20;48.10;;;;;;4995506;28;20041;-59
2022/06/16 07:59:12;;;;;;;19.50;3.83;;;33.60;49.90;;;;;;4998683;28;20044;-58
2022/06/16 08:01:37;;;;;;;5.40;2.10;;;33.20;51.10;;;;;;4985886;28;20054;-59
2022/06/16 08:04:05;;;;;;;4.97;2.20;;;33.40;50.00;;;;;;4994586;28;20096;-58
2022/06/16 08:06:32;;;;;;;6.07;2.22;;;33.70;49.20;;;;;;4996838;28;20038;-60
2022/06/16 08:08:58;;;;;;;6.82;2.22;;;33.70;49.60;;;;;;4996700;28;20129;-59
2022/06/16 08:14:08;;;;;;;6.00;2.15;;;33.20;49.60;;;;;;4998210;28;20483;-59
2022/06/16 08:16:34;;;;;;;6.15;2.15;;;34.00;49.60;;;;;;4996256;28;20093;-59
2022/06/16 08:19:00;;;;;;;4.03;1.85;;;34.60;48.90;;;;;;4993915;28;20025;-59
2022/06/16 08:21:26;;;;;;;5.63;1.98;;;33.30;49.80;;;;;;4996910;28;20040;-60
2022/06/16 08:23:53;;;;;;;3.35;1.63;;;33.00;49.90;;;;;;4994906;28;20033;-59
2022/06/16 08:26:19;;;;;;;3.10;1.75;;;33.20;49.90;;;;;;4998685;28;20136;-59
2022/06/16 08:28:45;;;;;;;6.60;2.15;;;33.60;48.40;;;;;;4998472;28;20026;-59
2022/06/16 08:31:11;;;;;;;4.82;1.98;;;33.10;48.70;;;;;;5000036;28;20037;-59
2022/06/16 08:33:36;;;;;;;4.55;1.90;;;33.40;48.00;;;;;;4997426;28;20026;-59
2022/06/16 08:36:02;;;;;;;4.95;1.58;;;33.90;47.60;;;;;;4999423;28;20123;-60
2022/06/16 08:38:28;;;;;;;7.25;1.83;;;34.00;48.20;;;;;;4997927;28;20034;-59
2022/06/16 08:41:12;;;;;;;4.45;2.03;;;33.90;47.00;;;;;;4998327;28;20116;-59
2022/06/16 08:44:07;;;;;;;3.55;1.42;;;34.50;46.70;;;;;;5002150;28;20030;-59
2022/06/16 08:46:50;;;;;;;1.92;1.20;;;34.20;46.40;;;;;;5018646;28;20033;-59
2022/06/16 08:49:27;;;;;;;4.65;1.75;;;32.80;47.80;;;;;;5002875;28;20095;-60
2022/06/16 08:52:07;;;;;;;6.35;1.70;;;32.30;48.10;;;;;;5007288;28;20110;-60
2022/06/16 08:54:47;;;;;;;5.80;1.83;;;32.40;49.20;;;;;;5011908;28;20029;-60
2022/06/16 08:57:30;;;;;;;4.35;2.28;;;33.30;46.50;;;;;;5011366;28;20045;-59
2022/06/16 09:00:10;;;;;;;3.63;2.13;;;33.50;46.60;;;;;;5011274;28;20049;-60
2022/06/16 09:02:47;;;;;;;4.55;1.63;;;33.20;48.70;;;;;;4999921;28;20118;-59
2022/06/16 09:05:40;;;;;;;4.95;1.85;;;31.90;48.10;;;;;;5004463;28;20029;-59
2022/06/16 09:08:30;;;;;;;2.67;1.60;;;32.90;48.00;;;;;;5006879;28;20029;-59
2022/06/16 09:11:17;;;;;;;7.25;2.03;;;32.00;48.60;;;;;;5003226;28;20054;-58
2022/06/16 09:14:11;;;;;;;3.88;1.83;;;32.20;48.80;;;;;;5008012;28;20026;-61
2022/06/16 09:17:07;;;;;;;4.00;1.70;;;32.20;46.40;;;;;;5003819;28;20036;-59
2022/06/16 09:20:03;;;;;;;4.47;2.10;;;32.00;47.20;;;;;;5008671;28;20038;-60
2022/06/16 09:22:37;;;;;;;4.53;1.90;;;32.30;47.80;;;;;;5003101;28;20070;-60
2022/06/16 09:25:28;;;;;;;6.72;2.00;;;32.60;47.20;;;;;;5006663;28;20384;-60
2022/06/16 09:28:23;;;;;;;4.03;1.40;;;31.50;48.70;;;;;;5007204;28;20413;-59
2022/06/16 09:30:52;;;;;;;7.18;1.90;;;31.80;46.70;;;;;;4995326;28;20038;-59
2022/06/16 09:33:21;;;;;;;8.23;2.00;;;31.40;47.20;;;;;;5005271;28;20038;-59
2022/06/16 09:35:59;;;;;;;4.60;1.50;;;31.30;49.10;;;;;;5009145;28;20033;-59
2022/06/16 09:38:39;;;;;;;3.42;1.83;;;31.30;45.80;;;;;;5010934;28;20519;-56
2022/06/16 09:44:12;;;;;;;6.85;1.50;;;31.40;46.80;;;;;;5009301;28;20029;-60
2022/06/16 09:46:46;;;;;;;3.42;1.77;;;31.10;46.70;;;;;;5004151;28;20022;-59
2022/06/16 09:49:13;;;;;;;2.47;1.30;;;31.60;45.20;;;;;;5004692;28;20041;-60
2022/06/16 09:51:52;;;;;;;7.03;1.45;;;31.30;46.80;;;;;;5001833;28;20044;-60
2022/06/16 09:54:27;;;;;;;3.28;1.50;;;31.60;45.50;;;;;;5010246;28;20029;-60
2022/06/16 09:57:13;;;;;;;4.38;1.70;;;31.70;46.50;;;;;;5011124;28;20057;-59
2022/06/16 09:59:50;;;;;;;6.07;1.88;;;31.60;48.10;;;;;;5008927;28;20030;-59
2022/06/16 10:02:22;;;;;;;7.90;1.95;;;31.10;48.20;;;;;;5010638;28;20029;-60
2022/06/16 10:04:52;;;;;;;4.78;1.65;;;30.70;48.50;;;;;;4999841;28;20403;-59
2022/06/16 10:07:51;;;;;;;3.95;1.80;;;30.70;51.00;;;;;;5007437;28;20038;-58
2022/06/16 10:10:28;;;;;;;4.32;1.67;;;29.90;49.20;;;;;;4996498;28;20037;-59
2022/06/16 10:13:11;;;;;;;4.00;1.80;;;29.30;49.20;;;;;;5008931;28;20112;-59
2022/06/16 10:15:45;;;;;;;;;;;29.10;48.70;;;;;;5005243;28;20018;-58
2022/06/16 10:18:12;;;;;;;4.57;1.70;;;28.80;49.70;;;;;;5004842;28;19928;-58
2022/06/16 10:20:39;;;;;;;7.43;1.73;;;28.30;51.10;;;;;;5004389;28;20056;-60
2022/06/16 10:23:24;;;;;;;7.78;1.55;;;27.90;50.70;;;;;;5012015;28;20104;-60
2022/06/16 10:26:01;;;;;;;5.25;1.60;;;28.00;50.70;;;;;;5007809;28;20127;-60
2022/06/16 10:29:02;;;;;;;4.72;1.50;;;27.30;49.30;;;;;;5003770;28;20426;-59
2022/06/16 10:31:40;;;;;;;4.57;2.25;;;27.30;49.90;;;;;;5002390;28;20030;-59
2022/06/16 10:34:16;;;;;;;6.03;1.60;;;27.20;49.70;;;;;;4994897;28;20037;-59
2022/06/16 10:36:49;;;;;;;7.43;1.80;;;27.50;49.40;;;;;;4999515;28;20042;-60
2022/06/16 10:39:20;;;;;;;3.40;1.83;;;27.30;49.70;;;;;;4994601;28;20099;-60
2022/06/16 10:42:03;;;;;;;3.85;1.70;;;27.10;50.20;;;;;;4997377;28;20435;-59
2022/06/16 10:44:32;;;;;;;4.35;1.40;;;27.10;50.80;;;;;;4994793;28;20052;-61
2022/06/16 10:47:06;;;;;;;4.78;1.67;;;27.30;49.40;;;;;;4995427;28;20036;-60
2022/06/16 10:49:36;;;;;;;4.20;1.80;;;27.20;51.00;;;;;;4995972;28;20388;-60
2022/06/16 10:52:13;;;;;;;5.30;2.05;;;26.80;49.40;;;;;;4996285;28;20037;-60
2022/06/16 10:54:54;;;;;;;6.28;1.83;;;26.70;50.40;;;;;;4995793;28;20471;-60
2022/06/16 10:57:27;;;;;;;5.03;1.60;;;26.70;49.40;;;;;;4996155;28;20419;-60
2022/06/16 11:00:04;;;;;;;2.90;1.40;;;26.50;49.60;;;;;;4997160;28;20037;-59
2022/06/16 11:02:35;;;;;;;5.03;1.67;;;26.40;51.40;;;;;;5000140;28;20288;-59
2022/06/16 11:05:11;;;;;;;2.97;1.00;;;26.50;50.90;;;;;;4994838;28;20057;-58
2022/06/16 11:07:41;;;;;;;3.03;1.40;;;26.60;52.90;;;;;;4995625;28;20113;-58
2022/06/16 11:10:29;;;;;;;3.80;1.65;;;26.60;51.30;;;;;;4999081;28;20022;-59
2022/06/16 11:12:55;;;;;;;4.63;1.90;;;26.20;50.70;;;;;;4995388;28;20132;-59
2022/06/16 11:15:25;;;;;;;2.03;1.30;;;25.80;51.60;;;;;;4986351;28;20793;-60
2022/06/16 11:17:56;;;;;;;2.47;1.40;;;25.80;51.20;;;;;;5000173;28;20119;-59
2022/06/16 11:20:48;;;;;;;3.30;1.63;;;25.70;52.20;;;;;;4995510;28;20034;-60
2022/06/16 11:23:33;;;;;;;3.83;1.63;;;25.60;50.80;;;;;;4995854;28;20363;-59
2022/06/16 11:26:05;;;;;;;5.55;1.73;;;25.50;50.50;;;;;;4994809;28;20061;-57
2022/06/16 11:28:39;;;;;;;3.95;1.25;;;25.50;52.20;;;;;;4994994;28;20096;-59
2022/06/16 11:31:06;;;;;;;4.13;1.40;;;25.50;51.90;;;;;;4997176;28;20092;-59
2022/06/16 11:36:42;;;;;;;3.20;1.38;;;25.50;50.60;;;;;;4999605;28;20044;-57
2022/06/16 11:39:13;;;;;;;3.80;2.28;;;25.40;51.60;;;;;;5000919;28;20022;-59
2022/06/16 11:41:44;;;;;;;5.70;1.45;;;25.40;50.90;;;;;;5000773;28;20014;-60
2022/06/16 11:44:29;;;;;;;7.15;2.03;;;25.20;51.80;;;;;;5009577;28;20025;-59
2022/06/16 11:47:10;;;;;;;5.82;1.45;;;24.90;52.70;;;;;;5014454;28;20674;-58
2022/06/16 11:49:42;;;;;;;3.50;1.83;;;25.20;51.70;;;;;;5001774;28;20571;-59
2022/06/16 11:52:30;;;;;;;3.42;1.90;;;25.10;51.30;;;;;;5008402;28;20042;-54
2022/06/16 11:55:16;;;;;;;2.63;1.50;;;25.30;52.10;;;;;;5004602;28;20036;-59
2022/06/16 11:58:01;;;;;;;3.92;1.38;;;25.30;52.70;;;;;;5009206;28;20010;-59
2022/06/16 12:00:41;;;;;;;2.90;1.05;;;25.40;52.60;;;;;;5008750;28;20403;-58
2022/06/16 12:03:15;;;;;;;4.35;1.20;;;25.60;52.50;;;;;;5009861;28;20022;-58
2022/06/16 12:05:47;;;;;;;2.03;1.40;;;25.70;51.00;;;;;;5003640;28;20716;-60
2022/06/16 12:08:27;;;;;;;3.85;1.30;;;25.50;50.80;;;;;;5001332;28;20026;-59
2022/06/16 12:11:13;;;;;;;2.10;1.23;;;25.20;49.70;;;;;;5010011;28;20033;-60
2022/06/16 12:14:02;;;;;;;2.35;1.13;;;25.00;51.20;;;;;;5003400;28;20057;-59
2022/06/16 12:16:36;;;;;;;3.60;1.20;;;25.00;50.50;;;;;;4994849;28;20037;-58
2022/06/16 12:19:20;;;;;;;3.30;1.33;;;24.80;52.20;;;;;;4995744;28;20030;-59
2022/06/16 12:22:04;;;;;;;3.80;1.20;;;24.50;54.10;;;;;;4998004;28;20522;-59
2022/06/16 12:24:31;;;;;;;3.70;1.42;;;24.60;53.50;;;;;;4996656;28;20411;-60
2022/06/16 12:27:11;;;;;;;2.30;1.02;;;24.60;53.00;;;;;;5008863;28;20647;-59
2022/06/16 12:30:02;;;;;;;3.90;1.15;;;24.70;53.70;;;;;;5005140;28;20026;-59
2022/06/16 12:32:56;;;;;;;3.55;1.38;;;24.70;51.80;;;;;;5007917;28;20022;-59
2022/06/16 12:35:45;;;;;;;1.88;1.15;;;24.80;51.90;;;;;;5007552;28;20026;-60
2022/06/16 12:38:26;;;;;;;2.67;1.20;;;24.70;50.30;;;;;;5007208;28;20029;-59
2022/06/16 12:40:56;;;;;;;2.63;1.20;;;24.60;50.90;;;;;;5007141;28;20091;-58
2022/06/16 12:43:29;;;;;;;4.03;0.93;;;24.40;51.40;;;;;;5006680;28;20076;-58
2022/06/16 12:46:01;;;;;;;;;;;24.30;50.00;;;;;;4998968;28;20436;-58
2022/06/16 12:48:36;;;;;;;3.03;1.65;;;24.20;50.70;;;;;;4993833;28;19913;-56
2022/06/16 12:51:06;;;;;;;2.47;1.10;;;24.30;49.90;;;;;;4995165;28;20030;-56
2022/06/16 12:53:57;;;;;;;2.70;0.93;;;24.30;50.50;;;;;;4998603;28;20033;-59
2022/06/16 12:56:25;;;;;;;1.25;1.08;;;24.30;50.00;;;;;;4998234;28;20030;-59
2022/06/16 12:59:01;;;;;;;3.75;1.48;;;24.40;51.30;;;;;;4997882;28;20038;-58
2022/06/16 13:01:27;;;;;;;3.75;1.23;;;24.40;51.30;;;;;;4994802;28;20034;-59
2022/06/16 13:04:08;;;;;;;2.63;1.30;;;24.40;50.80;;;;;;4996270;28;20045;-58
2022/06/16 13:06:35;;;;;;;2.22;1.20;;;24.30;49.90;;;;;;4996687;28;20080;-59
2022/06/16 13:09:06;;;;;;;3.55;1.08;;;24.20;52.00;;;;;;4997868;28;20455;-60
2022/06/16 13:11:37;;;;;;;3.85;1.27;;;24.20;50.90;;;;;;5012558;28;20537;-57
2022/06/16 13:14:11;;;;;;;3.97;1.15;;;24.20;52.20;;;;;;5007092;28;20022;-58
2022/06/16 13:16:41;;;;;;;3.50;1.02;;;24.10;52.50;;;;;;5010052;28;20026;-60
2022/06/16 13:19:23;;;;;;;3.15;1.20;;;24.10;52.70;;;;;;5012455;28;20037;-59
2022/06/16 13:22:04;;;;;;;2.88;1.27;;;24.00;53.30;;;;;;5009989;28;20061;-59
2022/06/16 13:24:41;;;;;;;2.55;1.05;;;24.00;53.30;;;;;;5010778;28;20021;-58
2022/06/16 13:27:14;;;;;;;1.73;1.00;;;23.90;52.60;;;;;;5013133;28;20080;-58
2022/06/16 13:29:51;;;;;;;5.47;1.50;;;23.90;51.40;;;;;;5008290;28;20021;-59
2022/06/16 13:32:37;;;;;;;7.00;1.08;;;23.90;52.10;;;;;;5012150;28;20128;-60
2022/06/16 13:35:12;;;;;;;3.58;1.50;;;24.00;52.10;;;;;;4998270;28;20029;-60
2022/06/16 13:37:47;;;;;;;2.47;1.38;;;24.00;52.40;;;;;;5009617;28;20037;-59
2022/06/16 13:40:15;;;;;;;4.78;1.40;;;24.00;54.00;;;;;;5010053;28;20034;-58
2022/06/16 13:43:00;;;;;;;5.20;1.92;;;24.10;53.40;;;;;;5011029;28;20090;-59